Time;durP1;ratioP1;P1;durP2;ratioP2;P2;SDS_P1;SDS_P2;PMS_P1;PMS_P2;Temp;Humidity;BMP_temperature;BMP_pressure;BME280_temperature;BME280_humidity;BME280_pressure;Samples;Min_cycle;Max_cycle;Signal;HPM_P1;HPM_P2
2022/02/04 00:23:45;;;;;;;;;;;;;;;5.40;59.49;100003.91;4516340;31;19991;-82
2022/02/04 00:26:18;;;;;;;;;;;;;;;5.27;59.48;100004.88;4516642;31;19980;-82
2022/02/04 00:33:43;;;;;;;;;;;;;;;5.40;59.49;99996.19;4499255;31;20813;-82
2022/02/04 00:36:18;;;;;;;;;;;;;;;5.46;59.48;99993.56;4486297;31;20007;-83
2022/02/04 00:38:47;;;;;;;;;;;;;;;5.47;59.49;99985.81;4499009;31;20032;-84
2022/02/04 00:41:15;;;;;;;;;;;;;;;5.61;59.50;99988.28;4500170;31;19968;-83
2022/02/04 00:43:41;;;;;;;;;;;;;;;5.56;59.49;99992.63;4500578;31;19985;-84
2022/02/04 00:49:03;;;;;;;;;;;;;;;5.65;59.50;99992.53;4499394;31;20617;-82
2022/02/04 00:51:36;;;;;;;;;;;;;;;5.48;59.48;99989.25;4500611;31;19999;-83
2022/02/04 00:54:19;;;;;;;;;;;;;;;5.46;59.49;99991.84;4500336;31;20012;-83
2022/02/04 00:57:06;;;;;;;;;;;;;;;5.63;59.50;100001.16;4500620;31;19980;-83
2022/02/04 01:26:38;;;;;;;;;;;;;;;5.40;59.49;99960.03;4499908;31;20038;-83
2022/02/04 01:29:05;;;;;;;;;;;;;;;5.37;59.47;99958.34;4500082;31;20024;-83
2022/02/04 01:31:32;;;;;;;;;;;;;;;5.23;59.46;99949.88;4500277;31;20038;-83
2022/02/04 01:33:57;;;;;;;;;;;;;;;5.34;59.47;99945.47;4499098;31;19972;-82
2022/02/04 01:36:22;;;;;;;;;;;;;;;5.37;59.48;99944.56;4500502;31;19976;-82
2022/02/04 01:38:47;;;;;;;;;;;;;;;5.43;59.48;99942.78;4500732;31;19968;-84
2022/02/04 01:41:13;;;;;;;;;;;;;;;5.37;59.48;99940.28;4498891;31;20022;-85
2022/02/04 01:43:39;;;;;;;;;;;;;;;5.44;59.48;99925.56;4500375;31;19990;-84
2022/02/04 01:46:05;;;;;;;;;;;;;;;5.41;59.48;99923.88;4485722;31;20362;-84
2022/02/04 01:48:31;;;;;;;;;;;;;;;5.32;59.48;99917.94;4498991;31;20073;-84
2022/02/04 01:50:56;;;;;;;;;;;;;;;5.27;59.48;99918.00;4499680;31;19998;-85
2022/02/04 01:53:28;;;;;;;;;;;;;;;5.14;59.46;99913.78;4499474;31;19964;-84
2022/02/04 01:55:53;;;;;;;;;;;;;;;5.19;59.47;99918.03;4498864;31;20036;-84
2022/02/04 01:58:18;;;;;;;;;;;;;;;5.26;59.48;99913.69;4500001;31;19980;-84
2022/02/04 02:00:43;;;;;;;;;;;;;;;5.14;59.47;99906.03;4498304;31;20011;-84
2022/02/04 02:03:09;;;;;;;;;;;;;;;5.17;59.47;99895.69;4497782;31;28398;-84
2022/02/04 02:05:34;;;;;;;;;;;;;;;5.13;59.47;99897.44;4499999;31;20431;-84
2022/02/04 02:08:05;;;;;;;;;;;;;;;5.18;59.47;99897.41;4499916;31;20002;-84
2022/02/04 02:10:30;;;;;;;;;;;;;;;5.08;59.46;99891.47;4499943;31;20031;-85
2022/02/04 02:39:58;;;;;;;;;;;;;;;4.94;59.46;99863.19;4501127;31;20740;-83
2022/02/04 02:44:41;;;;;;;;;;;;;;;5.00;59.46;99857.16;4500772;31;19971;-83
2022/02/04 02:47:34;;;;;;;;;;;;;;;4.96;59.46;99846.84;4500663;31;20630;-84
2022/02/04 02:55:22;;;;;;;;;;;;;;;4.70;59.43;99840.16;4515271;31;20316;-83
2022/02/04 03:02:39;;;;;;;;;;;;;;;4.76;59.44;99837.56;4515277;31;19980;-83
2022/02/04 03:05:04;;;;;;;;;;;;;;;4.67;59.44;99837.59;4517471;31;20036;-84
2022/02/04 03:07:29;;;;;;;;;;;;;;;4.57;59.43;99831.66;4489572;31;20003;-83
2022/02/04 03:09:54;;;;;;;;;;;;;;;4.62;59.44;99829.91;4516721;31;28892;-84
2022/02/04 03:12:20;;;;;;;;;;;;;;;4.61;59.44;99830.75;4501920;31;30774;-84
2022/02/04 03:14:45;;;;;;;;;;;;;;;4.64;59.44;99832.47;4516814;31;23113;-84
2022/02/04 03:17:12;;;;;;;;;;;;;;;4.70;59.44;99841.87;4517295;31;20546;-84
2022/02/04 03:19:40;;;;;;;;;;;;;;;4.64;59.45;99847.94;4517312;31;20328;-83
2022/02/04 03:22:10;;;;;;;;;;;;;;;4.55;59.43;99840.28;4502411;31;20071;-83
2022/02/04 03:24:35;;;;;;;;;;;;;;;4.50;59.44;99840.31;4517163;31;20021;-83
2022/02/04 03:27:06;;;;;;;;;;;;;;;4.43;59.43;99841.19;4517211;31;19988;-83
2022/02/04 03:29:47;;;;;;;;;;;;;;;4.39;59.42;99841.22;4502607;31;19987;-83
2022/02/04 03:32:17;;;;;;;;;;;;;;;4.36;59.43;99839.50;4517128;31;20274;-84
2022/02/04 03:34:42;;;;;;;;;;;;;;;4.51;59.43;99834.28;4499748;31;19972;-84
2022/02/04 03:37:07;;;;;;;;;;;;;;;4.49;59.44;99838.56;4499403;31;19980;-84
2022/02/04 03:39:35;;;;;;;;;;;;;;;4.47;59.43;99834.28;4499359;31;24658;-84
2022/02/04 03:42:00;;;;;;;;;;;;;;;4.38;59.42;99822.31;4499621;31;19984;-84
2022/02/04 03:44:25;;;;;;;;;;;;;;;4.59;59.44;99824.75;4499845;31;19971;-84
2022/02/04 03:46:50;;;;;;;;;;;;;;;4.62;59.44;99829.91;4500384;31;31574;-84
2022/02/04 03:49:16;;;;;;;;;;;;;;;4.63;59.43;99829.03;4499071;31;27571;-84
2022/02/04 03:51:41;;;;;;;;;;;;;;;4.55;59.43;99819.66;4499583;31;20000;-84
2022/02/04 03:54:06;;;;;;;;;;;;;;;4.59;59.43;99818.75;4500522;31;27582;-83
2022/02/04 03:56:32;;;;;;;;;;;;;;;4.66;59.44;99815.25;4499313;31;24369;-83
2022/02/04 03:58:57;;;;;;;;;;;;;;;4.58;59.44;99815.31;4500482;31;30398;-83
2022/02/04 04:01:22;;;;;;;;;;;;;;;4.62;59.43;99819.59;4499162;31;29081;-84
2022/02/04 04:03:48;;;;;;;;;;;;;;;4.59;59.44;99819.59;4499626;31;19964;-83
2022/02/04 04:06:14;;;;;;;;;;;;;;;4.61;59.44;99820.44;4499616;31;20447;-84
2022/02/04 04:08:39;;;;;;;;;;;;;;;4.65;59.44;99812.69;4501117;31;20007;-84
2022/02/04 04:11:05;;;;;;;;;;;;;;;4.74;59.45;99812.66;4498998;31;22771;-84
2022/02/04 04:13:30;;;;;;;;;;;;;;;4.76;59.45;99803.16;4500959;31;19991;-84
2022/02/04 04:15:55;;;;;;;;;;;;;;;4.70;59.44;99808.34;4500053;31;20772;-84
2022/02/04 04:18:21;;;;;;;;;;;;;;;4.76;59.45;99798.00;4499728;31;20296;-84
2022/02/04 04:20:46;;;;;;;;;;;;;;;4.83;59.45;99795.37;4500317;31;25252;-84
2022/02/04 04:23:11;;;;;;;;;;;;;;;4.81;59.45;99801.41;4499316;31;20369;-84
2022/02/04 04:25:37;;;;;;;;;;;;;;;4.79;59.45;99801.41;4499413;31;20020;-84
2022/02/04 04:28:02;;;;;;;;;;;;;;;4.78;59.44;99802.28;4499697;31;19996;-84
2022/02/04 04:30:27;;;;;;;;;;;;;;;4.80;59.45;99800.56;4498820;31;26424;-82
2022/02/04 04:32:53;;;;;;;;;;;;;;;4.80;59.45;99807.44;4486304;31;19992;-82
2022/02/04 04:35:19;;;;;;;;;;;;;;;4.78;59.44;99806.59;4515992;31;20638;-83
2022/02/04 04:43:22;;;;;;;;;;;;;;;4.81;59.45;99806.56;4516365;31;19994;-82
2022/02/04 05:29:31;;;;;;;;;;;;;;;4.64;59.44;99796.38;4516290;31;20624;-84
2022/02/04 05:31:56;;;;;;;;;;;;;;;4.63;59.43;99790.34;4501025;31;26217;-83
2022/02/04 05:34:21;;;;;;;;;;;;;;;4.70;59.44;99791.16;4497984;31;33927;-82
2022/02/04 05:36:59;;;;;;;;;;;;;;;4.72;59.45;99794.56;4498366;31;23618;-83
2022/02/04 05:39:28;;;;;;;;;;;;;;;4.60;59.44;99785.22;4499207;31;20043;-83
2022/02/04 05:41:53;;;;;;;;;;;;;;;4.57;59.44;99800.72;4498762;31;20356;-82
2022/02/04 05:44:19;;;;;;;;;;;;;;;4.57;59.43;99795.56;4498931;31;19999;-84
2022/02/04 05:46:55;;;;;;;;;;;;;;;4.59;59.44;99801.56;4485665;31;19998;-82
2022/02/04 05:49:23;;;;;;;;;;;;;;;4.48;59.43;99800.75;4486785;31;20031;-82
2022/02/04 05:51:58;;;;;;;;;;;;;;;4.58;59.44;99796.41;4498748;31;20455;-85
2022/02/04 05:55:19;;;;;;;;;;;;;;;4.57;59.44;99790.41;4498611;31;20418;-84
2022/02/04 05:57:18;;;;;;;;;;;;;;;4.46;59.43;99797.34;4490196;31;20271;-83
2022/02/04 06:02:48;;;;;;;;;;;;;;;4.52;59.43;99802.47;4499755;31;19988;-83
2022/02/04 06:05:24;;;;;;;;;;;;;;;4.53;59.43;99809.34;4498679;31;20359;-83
2022/02/04 06:10:37;;;;;;;;;;;;;;;4.51;59.43;99808.50;4499690;31;20363;-83
2022/02/04 06:23:43;;;;;;;;;;;;;;;4.70;59.43;99829.84;4482876;32;19995;-82
2022/02/04 06:26:08;;;;;;;;;;;;;;;4.69;59.44;99824.69;4482556;32;19976;-82
2022/02/04 06:28:35;;;;;;;;;;;;;;;4.71;59.43;99822.94;4483026;31;29132;-84
2022/02/04 06:31:00;;;;;;;;;;;;;;;4.82;59.45;99816.88;4482073;32;20242;-85
2022/02/04 06:33:26;;;;;;;;;;;;;;;4.85;59.45;99818.56;4481608;32;26881;-84
2022/02/04 06:35:51;;;;;;;;;;;;;;;4.86;59.45;99822.84;4469247;32;19985;-83
2022/02/04 06:38:16;;;;;;;;;;;;;;;4.78;59.44;99820.34;4484515;32;19984;-87
2022/02/04 06:40:41;;;;;;;;;;;;;;;4.85;59.45;99821.13;4485465;32;19987;-87
2022/02/04 06:43:09;;;;;;;;;;;;;;;4.94;59.46;99826.22;4471008;32;20006;-88
2022/02/04 06:45:45;;;;;;;;;;;;;;;4.84;59.45;99829.75;4486333;32;19972;-94
2022/02/04 06:48:11;;;;;;;;;;;;;;;5.03;59.46;99825.31;4486984;32;19976;-92
2022/02/04 06:50:36;;;;;;;;;;;;;;;5.01;59.46;99825.31;4472845;32;19989;-90
2022/02/04 06:53:03;;;;;;;;;;;;;;;5.04;59.46;99827.00;4484613;32;20000;-88
2022/02/04 06:55:29;;;;;;;;;;;;;;;5.00;59.46;99825.34;4484715;32;20081;-88
2022/02/04 06:57:56;;;;;;;;;;;;;;;4.89;59.45;99826.25;4483485;32;20359;-87
2022/02/04 07:00:25;;;;;;;;;;;;;;;4.75;59.44;99825.53;4483773;32;20004;-87
2022/02/04 07:02:51;;;;;;;;;;;;;;;4.77;59.44;99828.94;4484134;32;20006;-88
2022/02/04 07:05:17;;;;;;;;;;;;;;;4.80;59.45;99834.06;4471078;32;19986;-93
2022/02/04 07:07:49;;;;;;;;;;;;;;;4.80;59.45;99833.22;4472492;32;19988;-93
2022/02/04 07:10:25;;;;;;;;;;;;;;;4.77;59.44;99839.25;4473129;32;20003;-92
2022/02/04 07:22:23;;;;;;;;;;;;;;;5.06;59.46;99839.03;4489034;32;20025;-96
2022/02/04 07:24:56;;;;;;;;;;;;;;;5.14;59.47;99839.81;4476812;32;20053;-96
2022/02/04 07:27:28;;;;;;;;;;;;;;;5.29;59.47;99840.56;4474762;32;20757;-93
2022/02/04 07:42:10;;;;;;;;;;;;;;;5.53;59.49;99832.56;4443819;27;20177;-96
2022/02/04 07:44:37;;;;;;;;;;;;;;;5.59;59.49;99837.66;4423950;32;19959;-92
2022/02/04 07:47:02;;;;;;;;;;;;;;;5.73;59.50;99835.81;4408686;32;20000;-89
2022/02/04 07:49:27;;;;;;;;;;;;;;;5.78;59.51;99826.28;4420753;32;19978;-91
2022/02/04 07:51:55;;;;;;;;;;;;;;;5.77;59.51;99821.13;4408699;32;19990;-88
2022/02/04 07:54:20;;;;;;;;;;;;;;;5.90;59.51;99820.13;4408932;32;19997;-87
2022/02/04 07:56:45;;;;;;;;;;;;;;;5.87;59.51;99818.41;4408541;32;20000;-88
2022/02/04 07:59:17;;;;;;;;;;;;;;;6.03;59.52;99813.09;4421615;32;20012;-90
2022/02/04 08:01:42;;;;;;;;;;;;;;;6.10;59.52;99807.81;4408497;32;20275;-89
2022/02/04 08:04:17;;;;;;;;;;;;;;;6.23;59.53;99810.25;4409217;32;20036;-92
2022/02/04 08:06:49;;;;;;;;;;;;;;;6.41;59.53;99805.69;4409095;32;19990;-89
2022/02/04 08:12:15;;;;;;;;;;;;;;;6.52;59.55;99818.44;4422368;32;19978;-90
2022/02/04 08:49:28;;;;;;;;;;;;;;;7.23;59.58;99800.91;4410231;32;19968;-90
2022/02/04 08:54:55;;;;;;;;;;;;;;;7.45;59.60;99790.19;4410321;32;19989;-90
2022/02/04 08:57:41;;;;;;;;;;;;;;;7.32;59.58;99797.31;4398014;32;20013;-92
2022/02/04 09:00:21;;;;;;;;;;;;;;;7.50;59.60;99790.94;4397841;32;20855;-89
2022/02/04 09:02:53;;;;;;;;;;;;;;;7.70;59.61;99800.03;4395253;32;20060;-86
2022/02/04 09:05:19;;;;;;;;;;;;;;;7.84;59.62;99793.75;4408242;32;20026;-91
2022/02/04 09:07:56;;;;;;;;;;;;;;;8.02;59.63;99801.13;4407884;32;19997;-93
2022/02/04 09:10:31;;;;;;;;;;;;;;;7.94;59.63;99809.06;4411723;32;19998;-89
2022/02/04 09:18:58;;;;;;;;;;;;;;;8.40;59.65;99808.13;4409931;32;20003;-89
2022/02/04 09:23:28;;;;;;;;;;;;;;;8.62;59.66;99785.13;4408012;32;20038;-91
2022/02/04 09:25:53;;;;;;;;;;;;;;;8.75;59.67;99783.09;4394724;32;19977;-89
2022/02/04 09:28:18;;;;;;;;;;;;;;;8.74;59.66;99786.56;4394549;32;20611;-89
2022/02/04 09:30:44;;;;;;;;;;;;;;;8.91;59.68;99790.47;4421407;32;20004;-87
2022/02/04 09:33:12;;;;;;;;;;;;;;;8.91;59.68;99787.03;4407643;32;20255;-91
2022/02/04 09:35:37;;;;;;;;;;;;;;;8.96;59.67;99789.50;4395009;32;19977;-90
2022/02/04 09:38:02;;;;;;;;;;;;;;;9.07;59.68;99784.91;4407511;32;20294;-91
2022/02/04 09:40:28;;;;;;;;;;;;;;;9.19;59.70;99784.59;4394803;32;20013;-87
2022/02/04 09:42:55;;;;;;;;;;;;;;;9.16;59.69;99787.25;4390020;32;19995;-93
2022/02/04 09:45:22;;;;;;;;;;;;;;;9.36;59.70;99786.75;4391445;32;19974;-90
2022/02/04 09:47:48;;;;;;;;;;;;;;;9.43;59.71;99781.34;4392705;32;20010;-90
2022/02/04 09:50:17;;;;;;;;;;;;;;;9.48;59.70;99776.03;4405109;32;19993;-88
2022/02/04 10:18:00;;;;;;;;;;;;;;;10.50;59.76;99774.81;4406197;32;19998;-87
2022/02/04 10:20:25;;;;;;;;;;;;;;;10.55;59.78;99760.75;4406307;32;19997;-87
2022/02/04 10:22:50;;;;;;;;;;;;;;;10.51;59.77;99761.75;4406416;32;20041;-89
2022/02/04 10:25:16;;;;;;;;;;;;;;;10.59;59.77;99754.56;4407864;32;20021;-87
2022/02/04 10:27:44;;;;;;;;;;;;;;;10.62;59.78;99762.25;4408106;32;20437;-86
2022/02/04 10:30:10;;;;;;;;;;;;;;;10.84;59.79;99757.22;4406447;32;20007;-88
2022/02/04 10:32:40;;;;;;;;;;;;;;;11.04;59.79;99746.97;4394106;32;19978;-87
2022/02/04 10:35:12;;;;;;;;;;;;;;;11.25;59.81;99754.97;4407809;32;20045;-88
2022/02/04 10:37:40;;;;;;;;;;;;;;;11.38;59.82;99759.72;4394458;32;19986;-88
2022/02/04 10:41:03;;;;;;;;;;;;;;;11.46;59.83;99741.19;4394722;32;20009;-94
2022/02/04 10:46:36;;;;;;;;;;;;;;;11.63;59.83;99733.63;4362154;32;20046;-91
2022/02/04 11:32:47;;;;;;;;;;;;;;;13.05;59.91;99670.53;4317863;33;19991;-88
2022/02/04 11:53:31;;;;;;;;;;;;;;;12.72;59.88;99661.50;4318266;33;20605;-89
2022/02/04 11:55:59;;;;;;;;;;;;;;;12.54;59.88;99656.16;4330015;33;19991;-91
2022/02/04 11:58:59;;;;;;;;;;;;;;;12.58;59.89;99630.78;4317653;33;19981;-91
2022/02/04 12:01:49;;;;;;;;;;;;;;;12.55;59.88;99618.69;4304403;33;20001;-92
2022/02/04 12:04:18;;;;;;;;;;;;;;;12.64;59.89;99640.94;4317959;33;20275;-85
2022/02/04 12:06:43;;;;;;;;;;;;;;;12.58;59.89;99657.72;4329008;33;20338;-84
2022/02/04 12:09:35;;;;;;;;;;;;;;;12.64;59.88;99651.41;4325690;33;27029;-84
2022/02/04 12:12:00;;;;;;;;;;;;;;;12.37;59.88;99649.94;4303581;33;19992;-84
2022/02/04 12:14:34;;;;;;;;;;;;;;;12.45;59.88;99647.84;4302927;33;26172;-88
2022/02/04 12:17:06;;;;;;;;;;;;;;;12.53;59.88;99656.19;4328732;33;20023;-88
2022/02/04 12:19:42;;;;;;;;;;;;;;;12.46;59.87;99642.56;4329293;33;19996;-88
2022/02/04 12:22:07;;;;;;;;;;;;;;;12.40;59.87;99640.22;4317818;33;20007;-87
2022/02/04 12:24:33;;;;;;;;;;;;;;;12.52;59.88;99644.91;4316581;33;20000;-86
2022/02/04 12:27:17;;;;;;;;;;;;;;;12.28;59.87;99651.97;4317909;33;20405;-88
2022/02/04 12:29:42;;;;;;;;;;;;;;;12.35;59.86;99646.53;4328909;33;19996;-91
2022/02/04 12:32:28;;;;;;;;;;;;;;;12.36;59.88;99640.41;4325847;33;20056;-86
2022/02/04 12:34:54;;;;;;;;;;;;;;;12.37;59.88;99632.50;4316960;33;19984;-87
2022/02/04 12:37:20;;;;;;;;;;;;;;;12.37;59.87;99635.13;4328154;33;19980;-90
2022/02/04 12:39:45;;;;;;;;;;;;;;;12.20;59.87;99633.19;4328889;33;19992;-90
2022/02/04 12:42:13;;;;;;;;;;;;;;;12.19;59.86;99622.81;4328631;33;20056;-86
2022/02/04 12:44:39;;;;;;;;;;;;;;;12.32;59.87;99628.41;4328911;33;20021;-85
2022/02/04 12:47:05;;;;;;;;;;;;;;;12.39;59.87;99622.00;4328731;33;19990;-85
2022/02/04 12:49:31;;;;;;;;;;;;;;;12.41;59.88;99621.03;4317972;33;19984;-86
2022/02/04 12:52:16;;;;;;;;;;;;;;;12.42;59.88;99614.03;4316243;33;20048;-89
2022/02/04 13:03:01;;;;;;;;;;;;;;;12.67;59.89;99599.03;4317938;33;19995;-87
2022/02/04 13:10:38;;;;;;;;;;;;;;;12.81;59.91;99590.63;4328398;33;20340;-86
2022/02/04 13:13:04;;;;;;;;;;;;;;;12.86;59.90;99597.34;4316454;33;20010;-86
2022/02/04 13:15:33;;;;;;;;;;;;;;;12.84;59.90;99598.31;4318127;33;19984;-84
2022/02/04 13:17:59;;;;;;;;;;;;;;;12.69;59.89;99601.59;4317740;33;19994;-83
2022/02/04 13:20:24;;;;;;;;;;;;;;;12.83;59.90;99602.69;4317828;33;19988;-84
2022/02/04 13:22:51;;;;;;;;;;;;;;;12.83;59.90;99591.41;4317611;33;20000;-83
2022/02/04 13:25:17;;;;;;;;;;;;;;;12.62;59.89;99598.38;4317759;33;20005;-83
2022/02/04 13:28:01;;;;;;;;;;;;;;;12.63;59.89;99599.25;4328586;33;20409;-82
2022/02/04 13:30:27;;;;;;;;;;;;;;;12.65;59.89;99600.03;4317427;33;19976;-83
2022/02/04 13:32:52;;;;;;;;;;;;;;;12.91;59.91;99597.13;4328474;33;20015;-83
2022/02/04 13:35:24;;;;;;;;;;;;;;;12.87;59.91;99599.03;4328268;33;20286;-84
2022/02/04 13:37:52;;;;;;;;;;;;;;;12.89;59.90;99591.13;4328932;33;19988;-83
2022/02/04 13:40:24;;;;;;;;;;;;;;;13.04;59.91;99590.44;4319012;33;20081;-83
2022/02/04 13:42:53;;;;;;;;;;;;;;;12.97;59.91;99581.16;4331861;33;20047;-84
2022/02/04 13:45:24;;;;;;;;;;;;;;;12.74;59.90;99586.56;4318229;33;19999;-83
2022/02/04 13:48:01;;;;;;;;;;;;;;;12.62;59.89;99590.56;4303226;33;20023;-82
2022/02/04 13:50:44;;;;;;;;;;;;;;;12.56;59.88;99580.38;4317317;33;19980;-84
2022/02/04 13:53:20;;;;;;;;;;;;;;;12.60;59.89;99584.56;4317425;33;20390;-84
2022/02/04 14:01:01;;;;;;;;;;;;;;;12.89;59.90;99575.44;4303571;33;19976;-87
2022/02/04 14:03:28;;;;;;;;;;;;;;;12.86;59.90;99570.34;4289164;33;20421;-83
2022/02/04 14:06:05;;;;;;;;;;;;;;;13.02;59.90;99576.63;4309882;33;20014;-84
2022/02/04 14:08:35;;;;;;;;;;;;;;;13.02;59.91;99576.63;4312989;33;19977;-84
2022/02/04 14:11:04;;;;;;;;;;;;;;;12.81;59.91;99577.56;4302211;33;19977;-84
2022/02/04 14:13:29;;;;;;;;;;;;;;;12.72;59.89;99576.16;4302232;33;19993;-84
2022/02/04 14:15:59;;;;;;;;;;;;;;;12.70;59.89;99571.94;4312417;33;20276;-84
2022/02/04 14:18:25;;;;;;;;;;;;;;;12.52;59.88;99582.25;4312108;33;19992;-85
2022/02/04 14:20:50;;;;;;;;;;;;;;;12.42;59.89;99580.97;4302366;33;20282;-85
2022/02/04 14:23:15;;;;;;;;;;;;;;;12.35;59.87;99578.69;4312751;33;20035;-84
2022/02/04 14:25:45;;;;;;;;;;;;;;;12.54;59.89;99577.84;4302020;33;22533;-84
2022/02/04 14:28:14;;;;;;;;;;;;;;;12.50;59.88;99578.00;4313278;33;20006;-86
2022/02/04 14:30:39;;;;;;;;;;;;;;;12.46;59.88;99566.00;4313160;33;19992;-85
2022/02/04 14:33:12;;;;;;;;;;;;;;;12.54;59.89;99572.63;4302215;33;20032;-86
2022/02/04 14:35:57;;;;;;;;;;;;;;;12.59;59.89;99573.25;4302340;33;20012;-86
2022/02/04 14:49:34;;;;;;;;;;;;;;;12.63;59.89;99575.75;4301824;33;20019;-86
2022/02/04 14:52:16;;;;;;;;;;;;;;;12.65;59.88;99571.28;4312732;33;19996;-87
2022/02/04 15:02:41;;;;;;;;;;;;;;;12.78;59.89;99578.53;4303901;33;19985;-86
2022/02/04 15:05:11;;;;;;;;;;;;;;;12.54;59.89;99577.00;4303632;33;20037;-85
2022/02/04 15:07:38;;;;;;;;;;;;;;;12.52;59.89;99582.25;4303876;33;20056;-87
2022/02/04 15:10:05;;;;;;;;;;;;;;;12.53;59.89;99577.88;4314585;33;19985;-85
2022/02/04 15:12:38;;;;;;;;;;;;;;;12.47;59.88;99579.00;4303943;33;20012;-88
2022/02/04 15:15:04;;;;;;;;;;;;;;;12.33;59.87;99580.50;4303696;33;20006;-86
2022/02/04 15:17:29;;;;;;;;;;;;;;;11.93;59.85;99580.38;4303996;33;19973;-85
2022/02/04 15:19:54;;;;;;;;;;;;;;;12.04;59.86;99589.50;4314668;33;20005;-85
2022/02/04 15:22:23;;;;;;;;;;;;;;;12.07;59.87;99579.81;4303415;33;20890;-84
2022/02/04 15:24:53;;;;;;;;;;;;;;;11.96;59.85;99580.25;4314350;33;20011;-85
2022/02/04 15:27:18;;;;;;;;;;;;;;;11.83;59.85;99573.84;4302190;33;20072;-85
2022/02/04 15:29:46;;;;;;;;;;;;;;;11.68;59.84;99577.00;4303798;33;19976;-86
2022/02/04 15:32:12;;;;;;;;;;;;;;;11.61;59.84;99591.19;4303707;33;19985;-85
2022/02/04 15:34:37;;;;;;;;;;;;;;;11.76;59.84;99587.97;4303444;33;20304;-84
2022/02/04 15:37:02;;;;;;;;;;;;;;;11.68;59.84;99592.66;4314503;33;19980;-85
2022/02/04 15:39:29;;;;;;;;;;;;;;;11.55;59.82;99591.41;4314448;33;20052;-84
2022/02/04 15:41:55;;;;;;;;;;;;;;;11.61;59.84;99592.03;4303539;33;19980;-85
2022/02/04 15:44:35;;;;;;;;;;;;;;;11.58;59.83;99596.50;4314287;33;19999;-86
2022/02/04 16:02:44;;;;;;;;;;;;;;;10.89;59.79;99591.28;4314378;33;19976;-84
2022/02/04 16:05:11;;;;;;;;;;;;;;;10.84;59.79;99597.53;4303435;33;19989;-84
2022/02/04 16:07:40;;;;;;;;;;;;;;;10.73;59.78;99592.72;4303688;33;20091;-84
2022/02/04 16:10:20;;;;;;;;;;;;;;;10.65;59.78;99597.34;4313316;33;20316;-84
2022/02/04 16:15:45;;;;;;;;;;;;;;;10.89;59.80;99599.09;4302548;33;20060;-85
2022/02/04 16:18:17;;;;;;;;;;;;;;;10.95;59.80;99598.84;4314528;33;20517;-84
2022/02/04 16:23:14;;;;;;;;;;;;;;;10.70;59.79;99606.69;4314364;33;20019;-84
2022/02/04 16:31:00;;;;;;;;;;;;;;;10.47;59.78;99598.81;4312649;33;20122;-84
2022/02/04 16:33:25;;;;;;;;;;;;;;;10.52;59.77;99598.66;4303588;33;20001;-85
2022/02/04 16:35:51;;;;;;;;;;;;;;;10.68;59.79;99592.88;4314034;33;20024;-88
2022/02/04 16:38:18;;;;;;;;;;;;;;;10.57;59.78;99597.59;4314079;33;20338;-84
2022/02/04 16:40:46;;;;;;;;;;;;;;;10.58;59.78;99595.84;4314106;33;20274;-84
2022/02/04 16:43:13;;;;;;;;;;;;;;;10.24;59.76;99602.19;4303791;33;19985;-85
2022/02/04 16:45:38;;;;;;;;;;;;;;;10.15;59.75;99603.28;4309199;33;19996;-85
2022/02/04 16:48:04;;;;;;;;;;;;;;;10.15;59.75;99608.50;4317936;33;19991;-82
2022/02/04 16:50:29;;;;;;;;;;;;;;;10.16;59.75;99604.13;4317831;33;19984;-81
2022/02/04 16:52:54;;;;;;;;;;;;;;;10.07;59.75;99600.09;4304716;33;20019;-84
2022/02/04 16:55:20;;;;;;;;;;;;;;;9.98;59.74;99597.81;4304533;33;20019;-81
2022/02/04 16:57:47;;;;;;;;;;;;;;;10.03;59.75;99593.28;4317817;33;20063;-84
2022/02/04 17:00:23;;;;;;;;;;;;;;;9.89;59.74;99603.28;4304713;33;20360;-84
2022/02/04 17:02:49;;;;;;;;;;;;;;;9.81;59.74;99595.72;4316437;33;20374;-84
2022/02/04 17:05:14;;;;;;;;;;;;;;;9.65;59.73;99597.09;4317635;33;20032;-84
2022/02/04 17:07:39;;;;;;;;;;;;;;;9.80;59.74;99595.78;4317466;33;20039;-83
2022/02/04 17:10:07;;;;;;;;;;;;;;;9.79;59.74;99594.06;4304454;33;20378;-85
2022/02/04 17:12:41;;;;;;;;;;;;;;;9.75;59.72;99593.31;4317756;33;19999;-86
2022/02/04 17:15:06;;;;;;;;;;;;;;;9.71;59.72;99599.53;4305296;33;19980;-86
2022/02/04 17:17:32;;;;;;;;;;;;;;;9.52;59.72;99604.41;4317709;33;20002;-87
2022/02/04 17:20:10;;;;;;;;;;;;;;;9.32;59.70;99605.91;4304136;33;20326;-85
2022/02/04 17:22:37;;;;;;;;;;;;;;;9.19;59.70;99608.00;4315850;33;19983;-86
2022/02/04 17:25:07;;;;;;;;;;;;;;;9.17;59.70;99612.37;4304139;33;19996;-85
2022/02/04 17:27:33;;;;;;;;;;;;;;;9.09;59.69;99619.53;4304060;33;20007;-87
2022/02/04 17:29:58;;;;;;;;;;;;;;;8.92;59.68;99618.25;4317552;33;20008;-85
2022/02/04 17:32:25;;;;;;;;;;;;;;;8.92;59.69;99612.22;4317588;33;20002;-85
2022/02/04 17:34:50;;;;;;;;;;;;;;;8.82;59.68;99611.63;4316204;33;20047;-85
2022/02/04 17:37:15;;;;;;;;;;;;;;;8.75;59.68;99614.41;4303342;33;22444;-86
2022/02/04 17:39:42;;;;;;;;;;;;;;;8.67;59.67;99614.63;4316876;33;26147;-85
2022/02/04 17:42:08;;;;;;;;;;;;;;;8.51;59.67;99613.31;4316075;33;19983;-86
2022/02/04 17:44:33;;;;;;;;;;;;;;;8.57;59.66;99618.34;4307743;33;20040;-83
2022/02/04 17:46:58;;;;;;;;;;;;;;;8.42;59.65;99619.59;4331108;33;20010;-83
2022/02/04 17:49:29;;;;;;;;;;;;;;;8.25;59.65;99619.97;4331402;33;25295;-84
2022/02/04 17:52:01;;;;;;;;;;;;;;;8.25;59.65;99614.78;4331831;33;20415;-84
2022/02/04 17:54:40;;;;;;;;;;;;;;;8.08;59.64;99613.50;4331433;33;20004;-84
2022/02/04 17:57:15;;;;;;;;;;;;;;;8.10;59.63;99617.75;4331441;33;19991;-82
2022/02/04 18:02:59;;;;;;;;;;;;;;;8.05;59.63;99611.84;4318782;33;19990;-83
2022/02/04 18:05:30;;;;;;;;;;;;;;;7.83;59.62;99619.28;4330410;33;19992;-83
2022/02/04 18:07:56;;;;;;;;;;;;;;;7.78;59.62;99622.81;4317334;33;20008;-83
2022/02/04 18:10:22;;;;;;;;;;;;;;;7.65;59.61;99630.03;4317677;33;19998;-84
2022/02/04 18:12:47;;;;;;;;;;;;;;;7.53;59.60;99633.72;4317814;33;19988;-82
2022/02/04 18:15:12;;;;;;;;;;;;;;;7.31;59.59;99627.28;4317941;33;20018;-83
2022/02/04 18:17:38;;;;;;;;;;;;;;;7.27;59.59;99631.69;4330897;33;25818;-84
2022/02/04 18:20:03;;;;;;;;;;;;;;;7.28;59.59;99629.94;4329925;33;20322;-83
2022/02/04 18:22:29;;;;;;;;;;;;;;;7.25;59.60;99630.88;4316819;33;19976;-84
2022/02/04 18:24:54;;;;;;;;;;;;;;;7.20;59.59;99631.84;4316971;33;19996;-89
2022/02/04 18:27:19;;;;;;;;;;;;;;;7.01;59.57;99633.94;4302878;33;20044;-88
2022/02/04 18:29:52;;;;;;;;;;;;;;;7.05;59.58;99631.25;4303431;33;20048;-88
2022/02/04 18:32:17;;;;;;;;;;;;;;;6.98;59.58;99629.69;4304141;33;19984;-84
2022/02/04 18:34:42;;;;;;;;;;;;;;;6.89;59.57;99632.47;4304385;33;20008;-83
2022/02/04 18:37:08;;;;;;;;;;;;;;;6.90;59.57;99634.16;4318058;33;22315;-89
2022/02/04 18:44:45;;;;;;;;;;;;;;;6.83;59.57;99613.59;4305046;33;20054;-86
2022/02/04 18:47:25;;;;;;;;;;;;;;;6.72;59.57;99619.84;4305871;33;20390;-86
2022/02/04 18:49:57;;;;;;;;;;;;;;;6.69;59.56;99622.47;4318817;33;20346;-87
2022/02/04 18:52:37;;;;;;;;;;;;;;;6.58;59.56;99618.38;4306141;33;19976;-88
2022/02/04 18:55:58;;;;;;;;;;;;;;;6.56;59.55;99620.97;4294811;33;19988;-88
2022/02/04 18:57:51;;;;;;;;;;;;;;;6.60;59.56;99616.59;4301286;33;20006;-87
2022/02/04 19:00:18;;;;;;;;;;;;;;;6.55;59.55;99613.25;4318640;33;19986;-86
2022/02/04 19:02:47;;;;;;;;;;;;;;;6.58;59.55;99608.88;4304895;33;20027;-87
2022/02/04 19:05:22;;;;;;;;;;;;;;;6.20;59.54;99612.16;4316289;33;20385;-85
2022/02/04 19:10:25;;;;;;;;;;;;;;;5.99;59.52;99609.91;4306154;33;20315;-84
2022/02/04 19:12:55;;;;;;;;;;;;;;;5.98;59.52;99606.47;4317935;33;19975;-85
2022/02/04 19:17:53;;;;;;;;;;;;;;;5.98;59.51;99600.44;4318333;33;19984;-86
2022/02/04 19:20:27;;;;;;;;;;;;;;;5.71;59.51;99607.69;4305034;33;20055;-86
2022/02/04 19:22:56;;;;;;;;;;;;;;;5.71;59.50;99606.84;4318311;33;19964;-85
2022/02/04 19:25:26;;;;;;;;;;;;;;;5.69;59.50;99595.69;4305009;33;20000;-85
2022/02/04 19:27:51;;;;;;;;;;;;;;;5.62;59.50;99605.22;4305104;33;20004;-85
2022/02/04 19:30:16;;;;;;;;;;;;;;;5.61;59.50;99606.13;4316705;33;20002;-85
2022/02/04 19:32:42;;;;;;;;;;;;;;;5.74;59.50;99612.81;4292835;33;20019;-85
2022/02/04 19:35:07;;;;;;;;;;;;;;;5.82;59.50;99608.38;4292428;33;20055;-85
2022/02/04 19:37:32;;;;;;;;;;;;;;;5.86;59.51;99609.19;4304411;33;20467;-85
2022/02/04 19:39:58;;;;;;;;;;;;;;;5.98;59.51;99603.03;4316120;33;20024;-83
2022/02/04 19:42:27;;;;;;;;;;;;;;;6.03;59.52;99596.91;4292019;33;20004;-85